Weather at UNFICYP OP03 Heliport

Public forecast

Using degrees Celsius for public forecast. Weather courtesy of forecast.io.

Closest aviation weather report (METAR) to UNFICYP OP03 Heliport

Closest report is Paphos International Airport, 28.3 nm (52.4 km) SSW.

2024/06/18 11:30 (retrieved 33 minutes ago)

LCPH 181130Z 26009KT 240V320 9999 FEW013 30/23 Q1010 NOSIG

Closest aviation forecast (TAF) to UNFICYP OP03 Heliport

Closest forecast is Paphos International Airport, 28.3 nm (52.4 km) SSW.

2024/06/18 12:33 (retrieved 0 seconds ago)

TAF LCPH 181130Z 1812/1912 29012KT 9999 FEW015 BECMG 1817/1819 36006KT PROB30 TEMPO 1822/1906 BKN009 BECMG 1909/1911 27010KT